createdAt,value
2023-07-02T00:01:53.156Z,69.00
2023-07-02T00:04:19.966Z,69.18
2023-07-02T00:06:47.171Z,68.82
2023-07-02T00:09:14.257Z,69.06
2023-07-02T00:11:42.901Z,69.04
2023-07-02T00:14:10.643Z,69.12
2023-07-02T00:16:39.859Z,70.37
2023-07-02T00:19:08.505Z,69.59
2023-07-02T00:21:35.257Z,70.18
2023-07-02T00:24:01.857Z,69.88
2023-07-02T00:26:28.776Z,69.65
2023-07-02T00:28:57.062Z,69.34
2023-07-02T00:31:24.721Z,69.42
2023-07-02T00:33:51.931Z,69.82
2023-07-02T00:36:19.880Z,70.19
2023-07-02T00:38:47.446Z,70.67
2023-07-02T00:41:14.441Z,70.67
2023-07-02T00:43:41.038Z,69.80
2023-07-02T00:46:07.842Z,70.31
2023-07-02T00:48:34.511Z,70.96
2023-07-02T00:51:01.670Z,71.21
2023-07-02T00:53:29.660Z,70.86
2023-07-02T00:55:56.138Z,70.65
2023-07-02T00:58:22.947Z,70.60
2023-07-02T01:00:49.841Z,70.50
2023-07-02T01:03:16.785Z,70.59
2023-07-02T01:05:43.690Z,70.46
2023-07-02T01:08:10.285Z,69.89
2023-07-02T01:10:38.281Z,69.28
2023-07-02T01:13:09.764Z,69.04
2023-07-02T01:15:37.778Z,68.80
2023-07-02T01:18:06.082Z,68.31
2023-07-02T01:20:35.805Z,68.81
2023-07-02T01:23:02.613Z,68.70
2023-07-02T01:25:29.376Z,68.18
2023-07-02T01:27:56.391Z,67.78
2023-07-02T01:30:23.208Z,67.75
2023-07-02T01:32:50.193Z,67.12
2023-07-02T01:35:17.002Z,67.04
2023-07-02T01:37:44.990Z,67.18
2023-07-02T01:40:11.950Z,67.10
2023-07-02T01:42:39.133Z,67.01
2023-07-02T01:45:06.662Z,66.73
2023-07-02T01:47:34.971Z,66.40
2023-07-02T01:50:03.088Z,67.07
2023-07-02T01:52:29.762Z,67.65
2023-07-02T01:54:57.681Z,68.22
2023-07-02T01:57:24.402Z,68.00
2023-07-02T01:59:51.057Z,68.60
2023-07-02T02:02:17.673Z,69.22
2023-07-02T02:04:44.340Z,68.65
2023-07-02T02:07:10.943Z,68.88
2023-07-02T02:09:37.852Z,68.78
2023-07-02T02:12:06.747Z,68.34
2023-07-02T02:14:33.375Z,68.22
2023-07-02T02:17:00.048Z,68.19
2023-07-02T02:19:26.655Z,67.70
2023-07-02T02:21:53.275Z,68.03
2023-07-02T02:24:20.345Z,67.48
2023-07-02T02:26:46.981Z,67.60
2023-07-02T02:29:15.284Z,67.78
2023-07-02T02:31:41.910Z,67.94
2023-07-02T02:34:08.751Z,67.88
2023-07-02T02:36:35.371Z,67.96
2023-07-02T02:39:02.110Z,67.51
2023-07-02T02:41:28.604Z,67.65
2023-07-02T02:43:55.234Z,67.50
2023-07-02T02:46:23.684Z,67.38
2023-07-02T02:48:50.305Z,66.86
2023-07-02T02:51:17.173Z,66.65
2023-07-02T02:53:43.944Z,67.09
2023-07-02T02:56:10.522Z,66.99
2023-07-02T02:58:37.166Z,67.01
2023-07-02T03:01:04.072Z,66.23
2023-07-02T03:03:32.212Z,66.11
2023-07-02T03:05:58.881Z,65.98
2023-07-02T03:08:25.506Z,66.23
2023-07-02T03:10:52.232Z,65.98
2023-07-02T03:13:18.793Z,66.05
2023-07-02T03:15:45.414Z,66.44
2023-07-02T03:18:12.050Z,66.08
2023-07-02T03:20:40.020Z,66.52
2023-07-02T03:23:06.612Z,66.35
2023-07-02T03:25:33.498Z,66.00
2023-07-02T03:28:00.092Z,66.15
2023-07-02T03:30:26.693Z,65.99
2023-07-02T03:32:53.457Z,66.46
2023-07-02T03:35:20.110Z,66.11
2023-07-02T03:37:48.064Z,65.46
2023-07-02T03:40:14.885Z,65.70
2023-07-02T03:42:42.832Z,66.15
2023-07-02T03:45:10.230Z,65.83
2023-07-02T03:47:36.859Z,65.84
2023-07-02T03:50:03.862Z,65.35
2023-07-02T03:52:30.616Z,65.52
2023-07-02T03:54:58.593Z,65.19
2023-07-02T03:57:25.361Z,65.11
2023-07-02T03:59:51.939Z,64.75
2023-07-02T04:02:18.773Z,65.03
2023-07-02T04:04:45.476Z,64.68
2023-07-02T04:07:12.243Z,64.78
2023-07-02T04:09:38.870Z,64.34
2023-07-02T04:12:08.272Z,64.38
2023-07-02T04:14:34.908Z,64.31
2023-07-02T04:17:03.047Z,64.18
2023-07-02T04:19:29.626Z,64.93
2023-07-02T04:21:56.396Z,64.54
2023-07-02T04:24:23.150Z,64.13
2023-07-02T04:27:14.700Z,63.43
2023-07-02T04:29:38.237Z,62.74
2023-07-02T04:32:05.697Z,64.10
2023-07-02T04:34:32.706Z,63.64
2023-07-02T04:36:59.285Z,63.66
2023-07-02T04:39:26.009Z,63.03
2023-07-02T04:41:52.621Z,63.34
2023-07-02T04:44:19.748Z,62.78
2023-07-02T04:46:48.399Z,62.27
2023-07-02T04:49:15.052Z,61.67
2023-07-02T04:51:41.657Z,61.28
2023-07-02T04:54:08.359Z,60.82
2023-07-02T04:56:34.967Z,57.94
2023-07-02T04:59:01.546Z,57.53
2023-07-02T05:01:29.242Z,57.73
2023-07-02T05:03:57.248Z,56.98
2023-07-02T05:06:23.865Z,53.17
2023-07-02T05:08:50.452Z,53.79
2023-07-02T05:11:17.184Z,52.84
2023-07-02T05:13:43.799Z,50.66
2023-07-02T05:16:10.337Z,50.25
2023-07-02T05:18:36.930Z,49.91
2023-07-02T05:21:04.981Z,50.28
2023-07-02T05:23:31.726Z,49.62
2023-07-02T05:25:58.284Z,48.82
2023-07-02T05:28:25.282Z,47.67
2023-07-02T05:30:51.915Z,47.56
2023-07-02T05:33:20.043Z,48.10
2023-07-02T05:35:46.685Z,47.34
2023-07-02T05:38:14.916Z,47.52
2023-07-02T05:40:41.673Z,47.87
2023-07-02T05:43:08.349Z,47.83
2023-07-02T05:45:34.987Z,47.27
2023-07-02T05:48:01.604Z,46.65
2023-07-02T05:50:28.432Z,48.40
2023-07-02T05:52:57.096Z,48.31
2023-07-02T05:55:25.254Z,48.08
2023-07-02T05:57:54.493Z,48.55
2023-07-02T06:00:21.357Z,50.63
2023-07-02T06:02:48.084Z,49.55
2023-07-02T06:05:14.890Z,49.50
2023-07-02T06:07:41.722Z,48.28
2023-07-02T06:10:08.811Z,47.32
2023-07-02T06:12:36.636Z,46.86
2023-07-02T06:15:03.899Z,45.51
2023-07-02T06:17:30.547Z,44.76
2023-07-02T06:19:57.356Z,43.96
2023-07-02T06:22:24.072Z,44.21
2023-07-02T06:24:50.740Z,43.88
2023-07-02T06:27:17.499Z,42.45
2023-07-02T06:29:45.412Z,40.92
2023-07-02T06:32:12.013Z,39.26
2023-07-02T06:34:38.607Z,39.04
2023-07-02T06:37:05.769Z,37.75
2023-07-02T06:39:32.519Z,38.01
2023-07-02T06:41:59.104Z,37.20
2023-07-02T06:44:25.817Z,36.04
2023-07-02T06:46:53.911Z,35.95
2023-07-02T06:49:20.607Z,35.76
2023-07-02T06:51:47.233Z,34.95
2023-07-02T06:54:13.804Z,34.44
2023-07-02T06:56:40.646Z,34.99
2023-07-02T06:59:07.239Z,35.32
2023-07-02T07:01:33.814Z,36.26
2023-07-02T07:04:02.052Z,36.12
2023-07-02T07:06:30.059Z,35.82
2023-07-02T07:08:56.684Z,35.27
2023-07-02T07:11:23.378Z,35.43
2023-07-02T07:13:50.038Z,35.95
2023-07-02T07:16:16.807Z,35.46
2023-07-02T07:18:44.965Z,34.29
2023-07-02T07:21:12.944Z,32.58
2023-07-02T07:23:41.041Z,32.29
2023-07-02T07:26:07.772Z,32.57
2023-07-02T07:28:34.380Z,33.55
2023-07-02T07:31:01.076Z,32.98
2023-07-02T07:33:27.719Z,31.42
2023-07-02T07:35:54.470Z,32.90
2023-07-02T07:38:22.595Z,34.26
2023-07-02T07:40:49.771Z,33.35
2023-07-02T07:43:16.593Z,33.70
2023-07-02T07:45:43.440Z,33.37
2023-07-02T07:48:10.208Z,33.64
2023-07-02T07:50:36.847Z,33.30
2023-07-02T07:53:03.538Z,33.70
2023-07-02T07:55:31.508Z,34.31
2023-07-02T07:57:58.771Z,33.93
2023-07-02T08:00:25.491Z,32.55
2023-07-02T08:02:52.138Z,32.16
2023-07-02T08:05:18.780Z,32.36
2023-07-02T08:07:45.387Z,31.96
2023-07-02T08:10:12.007Z,34.09
2023-07-02T08:12:40.167Z,35.55
2023-07-02T08:15:07.902Z,37.15
2023-07-02T08:17:34.737Z,38.07
2023-07-02T08:20:01.379Z,38.94
2023-07-02T08:22:28.484Z,39.79
2023-07-02T08:24:55.072Z,39.67
2023-07-02T08:27:21.825Z,38.93
2023-07-02T08:29:50.147Z,38.62
2023-07-02T08:32:16.980Z,38.03
2023-07-02T08:34:43.626Z,37.17
2023-07-02T08:37:10.385Z,36.02
2023-07-02T08:39:38.414Z,35.71
2023-07-02T08:42:05.740Z,36.61
2023-07-02T08:44:32.543Z,36.49
2023-07-02T08:47:00.983Z,37.76
2023-07-02T08:49:28.106Z,39.13
2023-07-02T08:51:55.075Z,38.70
2023-07-02T08:54:21.951Z,38.59
2023-07-02T08:56:48.527Z,38.43
2023-07-02T08:59:15.505Z,38.01
2023-07-02T09:01:48.230Z,37.92
2023-07-02T09:04:20.582Z,38.99
2023-07-02T09:06:47.586Z,38.64
2023-07-02T09:09:14.228Z,37.74
2023-07-02T09:11:51.298Z,37.50
2023-07-02T09:14:29.995Z,37.47
2023-07-02T09:17:07.792Z,37.91
2023-07-02T09:19:36.719Z,37.57
2023-07-02T09:22:04.187Z,36.84
2023-07-02T09:24:31.776Z,35.69
2023-07-02T09:27:00.248Z,35.43
2023-07-02T09:29:28.418Z,33.68
2023-07-02T09:34:30.303Z,35.49
2023-07-02T09:36:59.624Z,36.74
2023-07-02T09:39:28.224Z,38.16
2023-07-02T09:41:56.260Z,38.75
2023-07-02T09:44:23.547Z,38.58
2023-07-02T09:46:57.004Z,38.67
2023-07-02T09:49:24.539Z,37.98
2023-07-02T09:51:51.791Z,37.18
2023-07-02T09:54:20.051Z,36.02
2023-07-02T09:56:46.904Z,35.19
2023-07-02T09:59:13.535Z,34.91
2023-07-02T10:01:40.407Z,34.31
2023-07-02T10:04:13.931Z,34.70
2023-07-02T10:06:48.455Z,36.10
2023-07-02T10:09:15.282Z,38.45
2023-07-02T10:11:43.573Z,40.96
2023-07-02T10:14:10.291Z,42.73
2023-07-02T10:16:50.139Z,44.88
2023-07-02T10:19:16.919Z,47.45
2023-07-02T10:21:43.677Z,47.31
2023-07-02T10:24:12.378Z,46.86
2023-07-02T10:26:38.989Z,44.72
2023-07-02T10:29:07.478Z,44.23
2023-07-02T10:31:34.260Z,42.00
2023-07-02T10:34:00.933Z,39.94
2023-07-02T10:36:27.561Z,39.87
2023-07-02T10:38:54.399Z,39.96
2023-07-02T10:41:26.617Z,40.06
2023-07-02T10:43:53.452Z,40.70
2023-07-02T10:46:22.461Z,40.52
2023-07-02T10:48:53.362Z,40.61
2023-07-02T10:51:20.185Z,39.99
2023-07-02T10:53:48.054Z,39.42
2023-07-02T10:56:18.828Z,37.38
2023-07-02T10:58:45.490Z,37.07
2023-07-02T11:01:12.687Z,36.17
2023-07-02T11:03:41.172Z,36.65
2023-07-02T11:06:08.023Z,35.35
2023-07-02T11:08:37.553Z,34.05
2023-07-02T11:11:08.335Z,34.50
2023-07-02T11:13:35.088Z,33.37
2023-07-02T11:16:02.378Z,32.49
2023-07-02T11:18:32.137Z,32.12
2023-07-02T11:21:11.017Z,31.94
2023-07-02T11:23:37.769Z,32.02
2023-07-02T11:26:04.860Z,32.33
2023-07-02T11:28:33.009Z,32.68
2023-07-02T11:31:00.138Z,33.29
2023-07-02T11:33:36.840Z,33.34
2023-07-02T11:36:05.740Z,33.22
2023-07-02T11:38:35.576Z,31.23
2023-07-02T11:41:03.914Z,30.03
2023-07-02T11:43:30.525Z,30.46
2023-07-02T11:45:57.130Z,30.41
2023-07-02T11:48:23.874Z,31.63
2023-07-02T11:50:50.483Z,30.21
2023-07-02T11:53:18.453Z,29.94
2023-07-02T11:55:45.345Z,30.32
2023-07-02T11:58:11.953Z,29.87
2023-07-02T12:00:38.581Z,29.32
2023-07-02T12:03:05.399Z,29.34
2023-07-02T12:05:32.220Z,28.53
2023-07-02T12:07:58.779Z,28.54
2023-07-02T12:10:26.879Z,28.93
2023-07-02T12:12:53.472Z,28.65
2023-07-02T12:15:20.195Z,29.14
2023-07-02T12:17:47.090Z,28.63
2023-07-02T12:20:13.832Z,28.26
2023-07-02T12:22:40.641Z,29.14
2023-07-02T12:25:08.132Z,29.15
2023-07-02T12:27:36.111Z,30.09
2023-07-02T12:30:03.018Z,30.49
2023-07-02T12:32:29.695Z,31.52
2023-07-02T12:34:58.037Z,31.88
2023-07-02T12:37:24.868Z,32.47
2023-07-02T12:39:51.494Z,33.51
2023-07-02T12:42:18.560Z,33.62
2023-07-02T12:44:46.625Z,33.89
2023-07-02T12:47:13.219Z,33.59
2023-07-02T12:49:39.952Z,34.66
2023-07-02T12:52:06.850Z,33.79
2023-07-02T12:54:33.854Z,31.73
2023-07-02T12:57:00.603Z,31.37
2023-07-02T12:59:27.194Z,32.04
2023-07-02T13:01:55.236Z,32.57
2023-07-02T13:04:22.122Z,31.70
2023-07-02T13:06:48.988Z,32.15
2023-07-02T13:09:15.547Z,32.19
2023-07-02T13:11:42.322Z,31.21
2023-07-02T13:14:09.100Z,31.29
2023-07-02T13:16:35.750Z,30.31
2023-07-02T13:19:03.909Z,30.18
2023-07-02T13:21:30.648Z,30.75
2023-07-02T13:23:57.269Z,31.35
2023-07-02T13:26:24.005Z,32.07
2023-07-02T13:28:50.749Z,32.07
2023-07-02T13:31:17.487Z,31.54
2023-07-02T13:33:44.666Z,31.36
2023-07-02T13:36:12.850Z,31.68
2023-07-02T13:38:39.637Z,31.69
2023-07-02T13:41:06.676Z,31.38
2023-07-02T13:43:33.400Z,30.58
2023-07-02T13:46:00.351Z,30.62
2023-07-02T13:48:28.788Z,30.69
2023-07-02T13:50:55.794Z,30.00
2023-07-02T13:53:23.808Z,29.29
2023-07-02T13:55:51.204Z,29.65
2023-07-02T13:58:29.380Z,30.04
2023-07-02T14:00:58.182Z,30.17
2023-07-02T14:03:24.922Z,30.70
2023-07-02T14:05:52.202Z,30.66
2023-07-02T14:08:19.263Z,30.19
2023-07-02T14:10:45.878Z,30.62
2023-07-02T14:13:12.585Z,31.24
2023-07-02T14:15:39.196Z,30.67
2023-07-02T14:18:07.641Z,31.18
2023-07-02T14:20:34.321Z,31.70
2023-07-02T14:23:00.988Z,31.77
2023-07-02T14:25:40.676Z,32.66
2023-07-02T14:28:08.607Z,33.20
2023-07-02T14:30:35.205Z,33.50
2023-07-02T14:33:01.803Z,33.83
2023-07-02T14:35:30.150Z,33.42
2023-07-02T14:37:56.710Z,33.71
2023-07-02T14:40:23.344Z,33.22
2023-07-02T14:42:50.354Z,32.99
2023-07-02T14:45:16.944Z,33.52
2023-07-02T14:47:43.962Z,33.94
2023-07-02T14:50:11.028Z,33.20
2023-07-02T14:52:38.995Z,32.71
2023-07-02T14:55:06.388Z,33.38
2023-07-02T14:57:33.204Z,33.38
2023-07-02T14:59:59.855Z,32.78
2023-07-02T15:02:26.791Z,33.25
2023-07-02T15:04:53.689Z,33.48
2023-07-02T15:07:20.618Z,33.01
2023-07-02T15:09:48.829Z,33.24
2023-07-02T15:12:15.434Z,33.59
2023-07-02T15:14:42.377Z,33.67
2023-07-02T15:17:09.057Z,34.46
2023-07-02T15:19:35.710Z,34.89
2023-07-02T15:22:02.207Z,34.43
2023-07-02T15:24:28.832Z,34.08
2023-07-02T15:26:56.993Z,33.66
2023-07-02T15:29:23.876Z,33.33
2023-07-02T15:31:50.482Z,34.11
2023-07-02T15:34:17.080Z,34.11
2023-07-02T15:36:44.148Z,34.49
2023-07-02T15:39:10.802Z,33.26
2023-07-02T15:41:37.401Z,33.63
2023-07-02T15:44:06.173Z,33.89
2023-07-02T15:46:32.818Z,34.77
2023-07-02T15:49:00.166Z,35.18
2023-07-02T15:51:26.768Z,34.71
2023-07-02T15:53:53.429Z,33.00
2023-07-02T15:56:20.047Z,32.84
2023-07-02T15:58:46.687Z,32.49
2023-07-02T16:01:16.877Z,32.52
2023-07-02T16:03:44.058Z,32.91
2023-07-02T16:06:13.101Z,33.14
2023-07-02T16:08:39.818Z,32.29
2023-07-02T16:11:07.502Z,32.02
2023-07-02T16:13:34.172Z,33.00
2023-07-02T16:16:02.208Z,33.63
2023-07-02T16:18:30.298Z,34.29
2023-07-02T16:20:58.640Z,34.36
2023-07-02T16:23:25.339Z,33.55
2023-07-02T16:25:55.607Z,34.11
2023-07-02T16:28:22.827Z,33.93
2023-07-02T16:30:49.581Z,33.99
2023-07-02T16:33:17.864Z,32.81
2023-07-02T16:35:46.749Z,32.91
2023-07-02T16:38:13.952Z,32.33
2023-07-02T16:40:40.814Z,32.83
2023-07-02T16:43:07.431Z,33.25
2023-07-02T16:45:34.387Z,33.70
2023-07-02T16:48:01.012Z,34.43
2023-07-02T16:50:27.861Z,33.79
2023-07-02T16:52:55.824Z,33.99
2023-07-02T16:55:22.589Z,34.08
2023-07-02T16:57:49.172Z,33.98
2023-07-02T17:00:16.624Z,33.83
2023-07-02T17:02:43.688Z,33.95
2023-07-02T17:05:10.387Z,33.80
2023-07-02T17:07:37.454Z,33.56
2023-07-02T17:10:06.917Z,33.58
2023-07-02T17:12:33.503Z,33.49
2023-07-02T17:15:00.099Z,34.00
2023-07-02T17:17:27.901Z,34.34
2023-07-02T17:19:55.905Z,34.54
2023-07-02T17:22:24.779Z,34.94
2023-07-02T17:24:53.283Z,34.77
2023-07-02T17:27:23.271Z,34.34
2023-07-02T17:29:51.225Z,34.28
2023-07-02T17:32:17.850Z,34.19
2023-07-02T17:34:44.837Z,34.41
2023-07-02T17:37:12.551Z,34.72
2023-07-02T17:39:39.397Z,34.93
2023-07-02T17:42:06.962Z,35.47
2023-07-02T17:44:37.026Z,35.49
2023-07-02T17:47:06.123Z,36.03
2023-07-02T17:49:36.639Z,36.13
2023-07-02T17:52:03.871Z,37.01
2023-07-02T17:54:34.982Z,36.52
2023-07-02T17:57:04.047Z,36.38
2023-07-02T17:59:30.655Z,35.87
2023-07-02T18:01:58.665Z,36.42
2023-07-02T18:04:25.333Z,36.73
2023-07-02T18:06:51.977Z,37.12
2023-07-02T18:09:19.136Z,36.90
2023-07-02T18:11:45.851Z,36.82
2023-07-02T18:14:12.438Z,37.18
2023-07-02T18:16:39.236Z,37.97
2023-07-02T18:19:07.240Z,37.91
2023-07-02T18:21:33.928Z,38.11
2023-07-02T18:24:00.592Z,37.86
2023-07-02T18:26:27.458Z,38.28
2023-07-02T18:28:54.272Z,38.18
2023-07-02T18:31:21.597Z,38.62
2023-07-02T18:33:48.296Z,38.76
2023-07-02T18:36:18.726Z,38.43
2023-07-02T18:38:45.609Z,38.75
2023-07-02T18:41:12.794Z,39.19
2023-07-02T18:43:39.645Z,39.00
2023-07-02T18:46:07.092Z,38.87
2023-07-02T18:48:34.286Z,39.21
2023-07-02T18:51:05.063Z,39.97
2023-07-02T18:53:35.275Z,40.25
2023-07-02T18:56:03.423Z,40.32
2023-07-02T18:58:31.332Z,40.91
2023-07-02T19:00:58.162Z,40.95
2023-07-02T19:03:25.171Z,41.31
2023-07-02T19:05:52.537Z,40.91
2023-07-02T19:08:20.080Z,41.07
2023-07-02T19:11:01.791Z,41.75
2023-07-02T19:13:29.100Z,41.68
2023-07-02T19:15:56.410Z,41.92
2023-07-02T19:18:23.342Z,42.28
2023-07-02T19:20:50.670Z,42.66
2023-07-02T19:23:17.893Z,42.37
2023-07-02T19:25:45.391Z,43.05
2023-07-02T19:28:13.692Z,43.08
2023-07-02T19:30:40.436Z,43.46
2023-07-02T19:33:07.295Z,43.71
2023-07-02T19:35:34.062Z,44.36
2023-07-02T19:38:00.943Z,45.07
2023-07-02T19:40:27.650Z,45.72
2023-07-02T19:42:54.388Z,45.67
2023-07-02T19:45:22.488Z,46.02
2023-07-02T19:47:52.419Z,46.52
2023-07-02T19:50:19.305Z,47.23
2023-07-02T19:52:47.289Z,47.60
2023-07-02T19:55:13.985Z,47.50
2023-07-02T19:57:41.086Z,47.37
2023-07-02T20:00:08.911Z,47.42
2023-07-02T20:02:37.832Z,47.26
2023-07-02T20:05:05.726Z,47.63
2023-07-02T20:07:33.352Z,47.77
2023-07-02T20:10:00.201Z,48.16
2023-07-02T20:12:27.151Z,48.06
2023-07-02T20:14:53.949Z,47.88
2023-07-02T20:17:20.642Z,47.64
2023-07-02T20:19:49.032Z,48.01
2023-07-02T20:22:16.245Z,47.76
2023-07-02T20:24:43.206Z,47.95
2023-07-02T20:27:10.375Z,48.25
2023-07-02T20:29:37.306Z,48.17
2023-07-02T20:32:06.096Z,48.48
2023-07-02T20:34:36.851Z,48.07
2023-07-02T20:37:08.040Z,48.32
2023-07-02T20:39:35.314Z,47.50
2023-07-02T20:42:03.707Z,47.21
2023-07-02T20:44:33.144Z,46.76
2023-07-02T20:46:59.888Z,46.74
2023-07-02T20:49:26.883Z,46.51
2023-07-02T20:51:53.498Z,46.44
2023-07-02T20:54:21.477Z,46.85
2023-07-02T20:56:48.856Z,47.08
2023-07-02T20:59:15.713Z,46.97
2023-07-02T21:01:42.648Z,46.87
2023-07-02T21:04:10.080Z,46.96
2023-07-02T21:06:38.915Z,47.19
2023-07-02T21:09:08.567Z,47.36
2023-07-02T21:11:37.196Z,47.84
2023-07-02T21:14:05.635Z,47.81
2023-07-02T21:16:32.447Z,48.19
2023-07-02T21:18:59.712Z,48.35
2023-07-02T21:21:28.799Z,48.41
2023-07-02T21:23:55.574Z,48.90
2023-07-02T21:26:22.235Z,49.13
2023-07-02T21:28:50.588Z,49.26
2023-07-02T21:31:17.456Z,49.45
2023-07-02T21:33:45.062Z,49.06
2023-07-02T21:36:13.088Z,49.06
2023-07-02T21:38:40.362Z,49.14
2023-07-02T21:41:07.993Z,48.94
2023-07-02T21:43:35.009Z,49.19
2023-07-02T21:46:04.873Z,49.35
2023-07-02T21:48:31.994Z,49.20
2023-07-02T21:50:58.898Z,49.56
2023-07-02T21:53:25.554Z,49.71
2023-07-02T21:55:53.070Z,49.73
2023-07-02T21:58:20.044Z,49.48
2023-07-02T22:00:46.869Z,49.21
2023-07-02T22:03:18.403Z,49.75
2023-07-02T22:05:51.458Z,49.56
2023-07-02T22:08:18.437Z,48.71
2023-07-02T22:10:45.036Z,48.86
2023-07-02T22:13:14.695Z,47.96
2023-07-02T22:15:41.401Z,47.12
2023-07-02T22:18:08.037Z,46.20
2023-07-02T22:20:37.431Z,45.70
2023-07-02T22:23:05.161Z,45.70
2023-07-02T22:25:32.675Z,45.52
2023-07-02T22:27:59.472Z,45.03
2023-07-02T22:30:26.591Z,44.70
2023-07-02T22:32:53.331Z,44.58
2023-07-02T22:35:19.942Z,45.04
2023-07-02T22:37:48.503Z,45.35
2023-07-02T22:40:17.811Z,45.46
2023-07-02T22:42:46.037Z,45.96
2023-07-02T22:45:14.575Z,46.20
2023-07-02T22:47:42.036Z,46.45
2023-07-02T22:50:11.420Z,46.66
2023-07-02T22:52:38.101Z,47.20
2023-07-02T22:55:07.469Z,46.94
2023-07-02T22:57:35.127Z,47.43
2023-07-02T23:00:02.364Z,47.61
2023-07-02T23:02:29.992Z,47.92
2023-07-02T23:04:56.768Z,48.02
2023-07-02T23:07:23.688Z,47.89
2023-07-02T23:09:50.280Z,47.99
2023-07-02T23:12:18.199Z,48.02
2023-07-02T23:14:44.929Z,47.91
2023-07-02T23:17:11.599Z,48.36
2023-07-02T23:19:38.323Z,48.81
2023-07-02T23:22:05.413Z,48.71
2023-07-02T23:24:32.071Z,49.33
2023-07-02T23:26:58.936Z,49.54
2023-07-02T23:29:26.984Z,49.96
2023-07-02T23:31:53.604Z,49.71
2023-07-02T23:34:20.364Z,49.79
2023-07-02T23:36:47.107Z,50.29
2023-07-02T23:39:14.483Z,50.18
2023-07-02T23:41:41.651Z,50.38
2023-07-02T23:44:09.501Z,50.36
2023-07-02T23:46:37.521Z,51.29
2023-07-02T23:49:04.348Z,51.17
2023-07-02T23:51:31.033Z,51.36
2023-07-02T23:53:57.964Z,51.69
2023-07-02T23:56:24.629Z,51.00
2023-07-02T23:58:51.206Z,50.88
